Time;durP1;ratioP1;P1;durP2;ratioP2;P2;SDS_P1;SDS_P2;PMS_P1;PMS_P2;Temp;Humidity;BMP_temperature;BMP_pressure;BME280_temperature;BME280_humidity;BME280_pressure;Samples;Min_cycle;Max_cycle;Signal;HPM_P1;HPM_P2
2022/10/24 00:00:00;;;;;;;36.10;19.40;;;;;;;6.10;100.00;98135.95;1731276;82;21336;-78
2022/10/24 00:02:26;;;;;;;28.77;19.15;;;;;;;6.05;100.00;98127.80;1730980;81;20984;-81
2022/10/24 00:04:52;;;;;;;26.57;16.32;;;;;;;5.97;100.00;98121.50;1750359;81;21011;-78
2022/10/24 00:07:18;;;;;;;33.85;18.00;;;;;;;5.92;100.00;98116.88;1745796;82;21642;-81
2022/10/24 00:09:43;;;;;;;28.02;17.37;;;;;;;5.87;100.00;98105.19;1768833;81;21165;-79
2022/10/24 00:12:09;;;;;;;25.27;15.32;;;;;;;5.85;100.00;98110.81;1745673;82;21646;-81
2022/10/24 00:14:36;;;;;;;22.45;13.78;;;;;;;5.87;100.00;98117.29;1768811;81;20904;-78
2022/10/24 00:17:02;;;;;;;29.87;15.55;;;;;;;5.92;100.00;98117.41;1768702;81;21071;-81
2022/10/24 00:19:28;;;;;;;26.15;15.35;;;;;;;5.99;100.00;98130.69;1768781;81;21006;-79
2022/10/24 00:21:54;;;;;;;23.20;14.98;;;;;;;6.06;100.00;98127.27;1745897;82;21041;-78
2022/10/24 00:24:20;;;;;;;26.70;16.23;;;;;;;6.06;100.00;98125.39;1768308;81;20952;-81
2022/10/24 00:26:46;;;;;;;26.42;15.72;;;;;;;6.07;100.00;98120.85;1745941;82;21063;-81
2022/10/24 00:29:12;;;;;;;26.75;15.90;;;;;;;6.04;100.00;98126.17;1768588;81;20896;-78
2022/10/24 00:31:38;;;;;;;27.73;16.37;;;;;;;5.99;100.00;98126.66;1745749;82;20933;-81
2022/10/24 00:34:04;;;;;;;28.12;16.55;;;;;;;5.89;100.00;98113.28;1768511;81;21165;-78
2022/10/24 00:36:30;;;;;;;29.32;17.75;;;;;;;5.85;100.00;98110.81;1768724;81;21025;-78
2022/10/24 00:38:56;;;;;;;27.40;16.65;;;;;;;5.84;100.00;98120.48;1768404;81;21003;-79
2022/10/24 00:41:34;;;;;;;29.63;16.23;;;;;;;5.86;100.00;98115.66;1745811;81;20874;-78
2022/10/24 00:44:21;;;;;;;28.98;17.15;;;;;;;5.87;100.00;98115.95;1768636;81;20992;-81
2022/10/24 00:47:07;;;;;;;27.40;16.97;;;;;;;5.83;100.00;98108.91;1768633;81;21024;-81
2022/10/24 00:49:46;;;;;;;25.85;15.93;;;;;;;5.85;100.00;98102.75;1768748;81;21500;-78
2022/10/24 00:52:12;;;;;;;30.23;18.15;;;;;;;5.92;100.00;98114.72;1768833;81;21271;-81
2022/10/24 00:54:38;;;;;;;27.02;17.90;;;;;;;5.89;100.00;98105.22;1768725;81;20956;-81
2022/10/24 00:57:30;;;;;;;26.15;16.52;;;;;;;5.86;100.00;98096.30;1768604;81;20909;-81
2022/10/24 01:00:01;;;;;;;25.35;15.40;;;;;;;5.85;100.00;98100.06;1768728;81;21150;-81
2022/10/24 01:02:27;;;;;;;25.92;15.70;;;;;;;5.86;100.00;98107.59;1713566;81;21056;-81
2022/10/24 01:04:53;;;;;;;23.42;15.45;;;;;;;5.86;100.00;98102.22;1750462;81;21587;-81
2022/10/24 01:08:01;;;;;;;26.35;15.13;;;;;;;5.89;100.00;98100.37;1772604;81;21036;-78
2022/10/24 01:10:49;;;;;;;27.07;16.35;;;;;;;5.94;100.00;98093.76;1772764;80;20997;-81
2022/10/24 01:13:41;;;;;;;26.97;16.70;;;;;;;5.97;100.00;98099.98;1772409;80;21590;-78
2022/10/24 01:16:36;;;;;;;24.00;15.65;;;;;;;5.98;100.00;98088.16;1772548;81;21063;-78
2022/10/24 01:19:55;;;;;;;27.90;16.25;;;;;;;5.98;100.00;98089.50;1772588;80;20996;-81
2022/10/24 01:22:24;;;;;;;26.97;14.87;;;;;;;6.01;100.00;98093.59;1771629;80;21079;-78
2022/10/24 01:25:32;;;;;;;30.83;17.03;;;;;;;5.99;100.00;98085.77;1773285;80;21472;-78
2022/10/24 01:28:14;;;;;;;28.62;15.93;;;;;;;5.96;100.00;98086.78;1772885;80;21178;-78
2022/10/24 01:30:50;;;;;;;27.02;14.55;;;;;;;5.93;100.00;98082.19;1772887;80;21447;-78
2022/10/24 01:33:32;;;;;;;23.27;15.63;;;;;;;5.88;100.00;98083.95;1772648;80;20996;-81
2022/10/24 01:36:09;;;;;;;25.45;14.95;;;;;;;5.87;100.00;98080.98;1772908;80;21016;-81
2022/10/24 01:38:56;;;;;;;28.92;14.03;;;;;;;5.86;100.00;98073.45;1772562;80;20999;-81
2022/10/24 01:41:25;;;;;;;28.00;18.02;;;;;;;5.85;100.00;98071.82;1773228;80;21286;-81
2022/10/24 01:44:06;;;;;;;24.98;15.38;;;;;;;5.84;100.00;98065.35;1772718;80;20991;-78
2022/10/24 01:46:39;;;;;;;24.40;16.07;;;;;;;5.83;100.00;98062.38;1772814;80;21531;-80
2022/10/24 01:49:09;;;;;;;27.20;16.30;;;;;;;5.82;100.00;98060.76;1772794;80;21438;-78
2022/10/24 01:51:35;;;;;;;33.25;16.90;;;;;;;5.74;100.00;98063.88;1772999;80;21063;-78
2022/10/24 01:54:03;;;;;;;28.52;16.70;;;;;;;5.73;100.00;98070.31;1772632;80;21736;-78
2022/10/24 01:56:29;;;;;;;28.83;16.45;;;;;;;5.70;100.00;98073.47;1773022;80;21444;-81
2022/10/24 01:59:10;;;;;;;31.25;17.17;;;;;;;5.70;100.00;98072.13;1772645;80;20956;-78
2022/10/24 02:01:36;;;;;;;22.02;14.53;;;;;;;5.70;100.00;98062.19;1768482;80;21052;-81
2022/10/24 02:04:05;;;;;;;25.77;16.10;;;;;;;5.70;100.00;98063.53;1760168;80;21004;-81
2022/10/24 02:06:34;;;;;;;27.13;16.05;;;;;;;5.75;100.00;98066.84;1739270;82;21219;-80
2022/10/24 02:09:04;;;;;;;24.12;14.95;;;;;;;5.80;100.00;98065.55;1733274;82;21443;-78
2022/10/24 02:11:33;;;;;;;31.52;15.75;;;;;;;5.83;100.00;98069.92;1733508;82;21015;-78
2022/10/24 02:14:15;;;;;;;24.40;15.30;;;;;;;5.89;100.00;98075.63;1733430;82;21071;-81
2022/10/24 02:16:42;;;;;;;24.02;15.25;;;;;;;5.90;100.00;98070.59;1733275;81;20984;-80
2022/10/24 02:19:08;;;;;;;22.25;13.85;;;;;;;5.90;100.00;98058.48;1733265;82;21336;-81
2022/10/24 02:21:59;;;;;;;19.77;12.68;;;;;;;5.94;100.00;98059.61;1733433;82;20916;-81
2022/10/24 02:24:35;;;;;;;19.30;12.47;;;;;;;5.98;100.00;98052.38;1733205;82;21467;-78
2022/10/24 02:27:14;;;;;;;20.43;13.50;;;;;;;6.00;100.00;98043.02;1733030;81;21103;-78
2022/10/24 02:29:51;;;;;;;22.62;13.30;;;;;;;5.99;100.00;98042.73;1732437;81;21003;-81
2022/10/24 02:32:22;;;;;;;18.73;12.18;;;;;;;6.04;100.00;98050.85;1733461;82;21010;-81
2022/10/24 02:34:48;;;;;;;23.95;12.95;;;;;;;6.11;100.00;98056.05;1725520;81;20977;-78
2022/10/24 02:37:14;;;;;;;22.48;13.55;;;;;;;6.15;100.00;98058.52;1745759;82;21063;-79
2022/10/24 02:39:40;;;;;;;21.15;13.30;;;;;;;6.17;100.00;98055.06;1738187;81;21546;-78
2022/10/24 02:42:06;;;;;;;21.20;13.08;;;;;;;6.19;100.00;98065.03;1745938;82;21357;-80
2022/10/24 02:44:32;;;;;;;22.67;11.95;;;;;;;6.22;100.00;98073.94;1768354;81;39295;-78
2022/10/24 02:47:00;;;;;;;20.85;12.45;;;;;;;6.25;100.00;98065.92;1745736;82;20953;-81
2022/10/24 02:49:26;;;;;;;22.93;12.53;;;;;;;6.25;100.00;98064.05;1768498;81;21063;-78
2022/10/24 02:51:52;;;;;;;19.60;13.38;;;;;;;6.25;100.00;98060.01;1768540;81;20963;-78
2022/10/24 02:54:18;;;;;;;21.90;13.70;;;;;;;6.27;100.00;98057.06;1745494;82;21024;-78
2022/10/24 02:56:53;;;;;;;19.77;12.03;;;;;;;6.26;100.00;98048.17;1768788;81;21346;-78
2022/10/24 02:59:18;;;;;;;19.12;11.38;;;;;;;6.28;100.00;98056.80;1768222;81;21055;-78
2022/10/24 03:01:44;;;;;;;20.97;12.75;;;;;;;6.26;100.00;98055.44;1745924;82;21629;-81
2022/10/24 03:04:10;;;;;;;20.80;13.55;;;;;;;6.22;100.00;98060.48;1764552;81;20845;-81
2022/10/24 03:06:36;;;;;;;19.57;12.60;;;;;;;6.20;100.00;98063.44;1731880;82;20998;-81
2022/10/24 03:09:02;;;;;;;23.02;13.80;;;;;;;6.21;100.00;98060.21;1750981;81;21901;-81
2022/10/24 03:11:28;;;;;;;24.75;13.25;;;;;;;6.19;100.00;98059.13;1703297;82;21018;-78
2022/10/24 03:13:54;;;;;;;24.30;13.18;;;;;;;6.17;100.00;98053.19;1723349;82;20898;-78
2022/10/24 03:16:20;;;;;;;28.85;14.60;;;;;;;6.13;100.00;98051.23;1732215;82;21306;-78
2022/10/24 03:18:46;;;;;;;22.42;14.28;;;;;;;6.07;100.00;98057.09;1751105;81;21708;-78
2022/10/24 03:21:12;;;;;;;19.32;13.93;;;;;;;6.06;100.00;98056.79;1732219;82;21351;-81
2022/10/24 03:23:38;;;;;;;23.87;14.55;;;;;;;6.10;100.00;98061.97;1750966;81;21579;-78
2022/10/24 03:26:04;;;;;;;19.50;12.75;;;;;;;6.16;100.00;98051.56;1732112;82;20896;-78
2022/10/24 03:28:29;;;;;;;25.12;14.03;;;;;;;6.19;100.00;98053.73;1751056;81;20883;-81
2022/10/24 03:30:55;;;;;;;21.80;13.35;;;;;;;6.15;100.00;98053.13;1732195;82;21577;-81
2022/10/24 03:33:22;;;;;;;24.98;15.63;;;;;;;6.16;100.00;98055.59;1750988;81;21302;-81
2022/10/24 03:35:52;;;;;;;30.60;17.42;;;;;;;6.24;100.00;98061.08;1732116;82;20979;-78
2022/10/24 03:38:19;;;;;;;25.50;14.05;;;;;;;6.39;100.00;98053.16;1750879;81;21049;-81
2022/10/24 03:40:45;;;;;;;18.85;13.25;;;;;;;6.47;100.00;98047.33;1731779;82;21035;-81
2022/10/24 03:43:11;;;;;;;23.00;14.23;;;;;;;6.49;100.00;98051.11;1750807;81;21006;-78
2022/10/24 03:45:38;;;;;;;23.22;13.60;;;;;;;6.48;100.00;98048.14;1732201;82;21062;-78
2022/10/24 03:48:04;;;;;;;22.13;13.60;;;;;;;6.43;100.00;98039.50;1750798;81;21513;-81
2022/10/24 03:50:31;;;;;;;18.73;13.00;;;;;;;6.47;100.00;98036.56;1731996;82;20972;-81
2022/10/24 03:52:57;;;;;;;19.17;12.07;;;;;;;6.53;100.00;98052.25;1750929;81;20998;-81
2022/10/24 03:55:22;;;;;;;21.33;11.78;;;;;;;6.61;100.00;98057.72;1732244;82;20864;-81
2022/10/24 03:57:48;;;;;;;18.85;9.75;;;;;;;6.64;100.00;98053.98;1750968;81;21505;-81
2022/10/24 04:00:15;;;;;;;14.38;9.23;;;;;;;6.72;100.00;98048.67;1732172;82;20947;-81
2022/10/24 04:02:41;;;;;;;18.57;10.30;;;;;;;6.77;100.00;98033.92;1751109;81;21042;-81
2022/10/24 04:05:07;;;;;;;14.35;9.38;;;;;;;6.83;100.00;98042.31;1743446;82;20949;-78
2022/10/24 04:07:33;;;;;;;19.05;11.05;;;;;;;6.91;100.00;98037.81;1776736;80;21063;-78
2022/10/24 04:09:59;;;;;;;19.32;12.70;;;;;;;6.99;100.00;98031.15;1745981;81;21332;-81
2022/10/24 04:12:25;;;;;;;17.25;11.05;;;;;;;7.04;100.00;98027.97;1745812;81;21611;-81
2022/10/24 04:14:51;;;;;;;16.05;10.93;;;;;;;7.12;100.00;98025.88;1746142;82;20909;-81
2022/10/24 04:17:17;;;;;;;21.85;10.80;;;;;;;7.19;100.00;98031.88;1746017;81;21000;-81
2022/10/24 04:19:43;;;;;;;25.08;11.05;;;;;;;7.23;100.00;98043.75;1745791;82;21004;-78
2022/10/24 04:22:09;;;;;;;15.72;11.05;;;;;;;7.29;100.00;98054.33;1745910;81;21910;-81
2022/10/24 04:24:36;;;;;;;24.43;12.60;;;;;;;7.32;100.00;98060.54;1745750;81;21040;-81
2022/10/24 04:27:02;;;;;;;23.60;12.53;;;;;;;7.39;100.00;98058.17;1745841;82;21016;-78
2022/10/24 04:29:28;;;;;;;16.85;11.75;;;;;;;7.42;100.00;98057.11;1745628;82;21017;-81
2022/10/24 04:31:54;;;;;;;23.75;15.70;;;;;;;7.46;100.00;98049.33;1746084;82;20976;-78
2022/10/24 04:34:20;;;;;;;27.00;16.55;;;;;;;7.46;100.00;98059.58;1745630;81;21034;-81
2022/10/24 04:36:46;;;;;;;25.17;16.02;;;;;;;7.50;100.00;98066.60;1745904;81;20929;-81
2022/10/24 04:39:12;;;;;;;23.52;16.73;;;;;;;7.51;100.00;98063.64;1745526;81;20897;-81
2022/10/24 04:41:38;;;;;;;19.60;15.18;;;;;;;7.55;100.00;98069.34;1745867;81;21024;-79
2022/10/24 04:44:04;;;;;;;27.67;16.62;;;;;;;7.55;100.00;98059.91;1745600;81;21008;-78
2022/10/24 04:46:30;;;;;;;24.23;15.78;;;;;;;7.56;100.00;98072.31;1745732;82;21242;-78
2022/10/24 04:48:56;;;;;;;26.02;14.68;;;;;;;7.59;100.00;98068.55;1745735;82;21493;-78
2022/10/24 04:51:22;;;;;;;27.98;16.25;;;;;;;7.61;100.00;98067.78;1746006;81;20905;-78
2022/10/24 04:53:49;;;;;;;23.40;11.53;;;;;;;7.61;100.00;98068.32;1745773;81;20901;-81
2022/10/24 04:56:15;;;;;;;21.42;11.85;;;;;;;7.54;100.00;98060.98;1746191;82;21032;-81
2022/10/24 04:58:41;;;;;;;27.15;13.10;;;;;;;7.47;100.00;98051.77;1745623;82;21211;-78
2022/10/24 05:01:07;;;;;;;22.35;13.13;;;;;;;7.43;100.00;98060.61;1746020;81;20945;-78
2022/10/24 05:03:33;;;;;;;17.05;10.75;;;;;;;7.37;100.00;98058.44;1745522;80;20952;-81
2022/10/24 05:05:58;;;;;;;24.30;12.37;;;;;;;7.34;100.00;98056.23;1749185;81;21273;-81
2022/10/24 05:08:24;;;;;;;23.67;12.55;;;;;;;7.37;100.00;98054.39;1731946;81;20900;-82
2022/10/24 05:10:50;;;;;;;17.07;10.53;;;;;;;7.41;100.00;98051.98;1753025;80;21123;-81
2022/10/24 05:13:16;;;;;;;22.10;12.43;;;;;;;7.44;100.00;98052.83;1749111;82;20882;-82
2022/10/24 05:15:42;;;;;;;22.73;12.05;;;;;;;7.51;100.00;98058.25;1746242;81;21035;-81
2022/10/24 05:18:08;;;;;;;19.42;10.32;;;;;;;7.57;100.00;98069.89;1769157;81;20981;-78
2022/10/24 05:20:34;;;;;;;20.48;12.63;;;;;;;7.65;100.00;98065.37;1763191;81;20919;-78
2022/10/24 05:23:00;;;;;;;18.90;10.95;;;;;;;7.74;100.00;98057.06;1748143;81;21063;-81
2022/10/24 05:25:26;;;;;;;21.80;13.65;;;;;;;7.77;100.00;98057.88;1772991;80;20912;-81
2022/10/24 05:27:52;;;;;;;19.05;12.78;;;;;;;7.84;100.00;98046.88;1772983;80;20872;-78
2022/10/24 05:30:18;;;;;;;20.60;12.23;;;;;;;7.85;100.00;98038.51;1772750;80;20900;-78
2022/10/24 05:32:44;;;;;;;16.62;11.83;;;;;;;7.86;100.00;98040.16;1759182;81;21652;-81
2022/10/24 05:35:10;;;;;;;21.52;12.68;;;;;;;7.88;100.00;98043.94;1748700;82;21491;-81
2022/10/24 05:37:37;;;;;;;21.45;12.78;;;;;;;7.90;100.00;98045.83;1744746;81;20862;-81
2022/10/24 05:40:07;;;;;;;21.55;13.50;;;;;;;7.86;100.00;98052.81;1716131;82;21011;-78
2022/10/24 05:42:32;;;;;;;;;;;;;;;7.80;100.00;98052.52;1721234;81;21665;-81
2022/10/24 05:44:58;;;;;;;26.93;12.25;;;;;;;7.83;100.00;98054.16;1753739;79;20543;-81
2022/10/24 05:47:24;;;;;;;21.48;13.00;;;;;;;7.84;100.00;98042.82;1747582;81;21165;-78
2022/10/24 05:49:50;;;;;;;24.12;13.35;;;;;;;7.86;100.00;98050.95;1743124;81;21051;-81
2022/10/24 05:52:16;;;;;;;23.73;13.70;;;;;;;7.88;100.00;98059.59;1740836;81;21531;-78
2022/10/24 05:54:42;;;;;;;20.77;13.55;;;;;;;7.91;100.00;98057.70;1746158;81;20889;-79
2022/10/24 05:57:08;;;;;;;20.15;12.65;;;;;;;7.92;100.00;98056.63;1752688;81;21072;-78
2022/10/24 05:59:34;;;;;;;24.27;14.80;;;;;;;7.99;100.00;98063.15;1739887;81;21082;-78
2022/10/24 06:02:00;;;;;;;27.87;13.68;;;;;;;8.05;100.00;98067.51;1746053;81;20916;-78
2022/10/24 06:04:26;;;;;;;18.10;12.70;;;;;;;8.12;100.00;98064.58;1756863;81;20897;-78
2022/10/24 06:06:52;;;;;;;21.57;13.15;;;;;;;8.19;100.00;98065.94;1758342;81;20881;-78
2022/10/24 06:09:18;;;;;;;19.60;14.58;;;;;;;8.27;100.00;98061.93;1764995;79;20955;-78
2022/10/24 06:11:43;;;;;;;18.40;11.53;;;;;;;8.35;100.00;98062.80;1755301;81;21141;-81
2022/10/24 06:14:09;;;;;;;26.68;17.37;;;;;;;8.34;100.00;98063.04;1771298;78;20932;-79
2022/10/24 06:16:36;;;;;;;21.20;13.90;;;;;;;8.41;100.00;98069.05;1759515;79;20976;-78
2022/10/24 06:19:02;;;;;;;21.95;13.00;;;;;;;8.51;100.00;98067.73;1748287;79;21445;-79
2022/10/24 06:21:28;;;;;;;21.05;12.25;;;;;;;8.65;100.00;98055.90;1763200;79;21009;-81
2022/10/24 06:23:54;;;;;;;26.48;12.68;;;;;;;8.82;100.00;98047.02;1741759;79;20935;-82
2022/10/24 06:26:20;;;;;;;19.32;11.70;;;;;;;8.96;100.00;98052.16;1754411;79;20872;-81
2022/10/24 06:28:45;;;;;;;63.83;34.53;;;;;;;9.16;100.00;98045.17;1733600;81;21322;-79
2022/10/24 06:31:12;;;;;;;32.83;17.65;;;;;;;9.35;100.00;98052.20;1748292;79;21873;-78
2022/10/24 06:33:38;;;;;;;32.93;21.65;;;;;;;9.56;100.00;98057.86;1757965;79;21091;-78
2022/10/24 06:36:06;;;;;;;53.15;26.77;;;;;;;9.70;100.00;98058.13;1745690;79;21820;-79
2022/10/24 06:38:32;;;;;;;27.98;17.95;;;;;;;9.73;100.00;98066.50;1751243;79;21042;-78
2022/10/24 06:40:58;;;;;;;37.73;18.07;;;;;;;9.90;100.00;98067.01;1754305;79;20969;-82
2022/10/24 06:43:24;;;;;;;55.85;39.45;;;;;;;10.00;100.00;98072.97;1752488;79;20885;-78
2022/10/24 06:45:50;;;;;;;42.80;28.27;;;;;;;10.04;100.00;98075.38;1738242;81;21109;-81
2022/10/24 06:48:16;;;;;;;35.15;21.80;;;;;;;10.09;100.00;98069.97;1757639;81;21302;-82
2022/10/24 06:50:42;;;;;;;39.95;30.32;;;;;;;10.19;100.00;98066.41;1746339;79;20896;-78
2022/10/24 06:53:08;;;;;;;18.32;11.75;;;;;;;10.27;100.00;98069.94;1751401;79;20884;-79
2022/10/24 06:55:36;;;;;;;26.07;9.90;;;;;;;10.51;100.00;98072.83;1762193;79;21070;-78
2022/10/24 06:58:02;;;;;;;13.13;8.68;;;;;;;10.90;100.00;98065.30;1723665;81;21087;-79
2022/10/24 07:00:28;;;;;;;13.18;8.55;;;;;;;11.33;100.00;98065.00;1755779;81;22361;-79
2022/10/24 07:02:54;;;;;;;14.38;7.67;;;;;;;11.75;100.00;98068.44;1744579;81;20877;-81
2022/10/24 07:05:20;;;;;;;9.90;6.30;;;;;;;12.27;100.00;98064.67;1750669;81;22428;-82
2022/10/24 07:07:46;;;;;;;10.00;7.37;;;;;;;12.59;100.00;98062.66;1757744;81;21471;-82
2022/10/24 07:10:13;;;;;;;15.13;9.08;;;;;;;12.84;100.00;98062.88;1749029;81;20845;-82
2022/10/24 07:12:39;;;;;;;11.15;6.80;;;;;;;13.03;100.00;98064.23;1746021;79;21036;-82
2022/10/24 07:15:05;;;;;;;11.97;6.40;;;;;;;13.23;100.00;98068.03;1745887;79;20969;-82
2022/10/24 07:17:40;;;;;;;15.68;6.80;;;;;;;13.35;100.00;98068.41;1740338;81;21602;-79
2022/10/24 07:20:07;;;;;;;11.97;6.78;;;;;;;13.47;100.00;98071.46;1755969;79;21325;-79
2022/10/24 07:22:32;;;;;;;12.25;6.65;;;;;;;13.53;100.00;98067.56;1750171;79;20995;-80
2022/10/24 07:24:58;;;;;;;9.28;6.42;;;;;;;13.68;100.00;98080.67;1747863;81;21255;-81
2022/10/24 07:27:24;;;;;;;10.72;6.97;;;;;;;13.77;100.00;98088.41;1751841;79;21225;-78
2022/10/24 07:29:50;;;;;;;16.07;7.35;;;;;;;13.88;100.00;98091.20;1756806;79;20971;-79
2022/10/24 07:32:18;;;;;;;11.60;6.05;;;;;;;13.98;100.00;98082.05;1752700;81;20900;-82
2022/10/24 07:34:43;;;;;;;7.58;5.12;;;;;;;14.11;100.00;98088.08;1747250;81;21046;-79
2022/10/24 07:37:09;;;;;;;9.80;5.10;;;;;;;14.38;100.00;98077.75;1750924;81;21182;-79
2022/10/24 07:39:36;;;;;;;8.00;4.65;;;;;;;14.57;100.00;98076.31;1758946;81;20872;-82
2022/10/24 07:42:04;;;;;;;9.15;5.87;;;;;;;14.81;100.00;98077.45;1744864;81;21121;-82
2022/10/24 07:44:30;;;;;;;10.53;5.37;;;;;;;14.97;100.00;98066.45;1743664;81;21033;-82
2022/10/24 07:46:56;;;;;;;11.38;6.62;;;;;;;15.05;100.00;98063.00;1747883;81;20908;-82
2022/10/24 07:49:22;;;;;;;20.20;8.40;;;;;;;15.13;100.00;98058.73;1734516;79;21838;-79
2022/10/24 07:51:48;;;;;;;18.40;9.20;;;;;;;15.12;100.00;98063.36;1748338;79;21489;-79
2022/10/24 07:54:13;;;;;;;21.85;10.15;;;;;;;15.12;100.00;98065.28;1749190;81;20901;-82
2022/10/24 07:56:39;;;;;;;13.98;7.62;;;;;;;15.12;100.00;98063.36;1743842;79;20967;-79
2022/10/24 07:59:05;;;;;;;14.78;7.40;;;;;;;15.17;100.00;98065.98;1750262;79;21027;-79
2022/10/24 08:01:31;;;;;;;12.75;7.20;;;;;;;15.28;100.00;98054.82;1739024;81;21011;-82
2022/10/24 08:03:57;;;;;;;14.28;6.80;;;;;;;15.40;100.00;98048.27;1745962;81;21052;-82
2022/10/24 08:06:27;;;;;;;12.37;7.25;;;;;;;15.52;100.00;98052.03;1775285;79;20990;-79
2022/10/24 08:08:53;;;;;;;14.15;6.00;;;;;;;15.63;100.00;98048.52;1772885;79;21142;-79
2022/10/24 08:11:25;;;;;;;10.60;5.75;;;;;;;15.83;100.00;98053.23;1753417;79;20932;-79
2022/10/24 08:13:51;;;;;;;10.88;4.80;;;;;;;15.95;99.06;98044.69;1756293;79;21663;-82
2022/10/24 08:16:19;;;;;;;9.33;3.90;;;;;;;16.06;98.66;98055.62;1764511;79;21062;-82
2022/10/24 08:18:46;;;;;;;5.80;3.47;;;;;;;16.25;97.85;98048.53;1756847;79;21139;-82
2022/10/24 08:21:13;;;;;;;11.88;5.40;;;;;;;16.57;94.78;98050.06;1753413;79;22255;-79
2022/10/24 08:23:42;;;;;;;9.00;5.50;;;;;;;16.81;95.95;98054.34;1742618;81;21074;-81
2022/10/24 08:26:11;;;;;;;9.48;5.00;;;;;;;16.93;94.91;98047.70;1739701;81;21195;-79
2022/10/24 08:28:37;;;;;;;;;;;;;;;16.96;92.65;98030.62;1759136;80;21582;-79
2022/10/24 08:31:06;;;;;;;6.00;3.05;;;;;;;17.13;91.90;98044.88;1737347;80;20273;-79
2022/10/24 08:33:32;;;;;;;6.75;3.70;;;;;;;17.21;91.86;98031.76;1717316;80;21020;-82
2022/10/24 08:36:01;;;;;;;7.12;3.12;;;;;;;17.39;89.75;98016.12;1770838;79;20988;-79
2022/10/24 08:38:27;;;;;;;7.33;3.75;;;;;;;17.45;89.43;98011.53;1758953;79;21067;-82
2022/10/24 08:40:54;;;;;;;10.40;3.77;;;;;;;17.58;90.79;98019.30;1755123;80;21563;-82
2022/10/24 08:43:20;;;;;;;6.35;3.33;;;;;;;17.64;90.44;98017.21;1748653;81;21046;-82
2022/10/24 08:46:09;;;;;;;8.73;3.00;;;;;;;17.66;89.05;98021.23;1739282;81;21116;-80
2022/10/24 08:49:06;;;;;;;9.10;3.17;;;;;;;17.69;89.24;98019.23;1757808;80;21080;-79
2022/10/24 08:51:48;;;;;;;8.53;3.10;;;;;;;17.79;90.29;98008.50;1747837;79;21513;-79
2022/10/24 08:54:18;;;;;;;7.33;2.70;;;;;;;17.88;90.40;98015.33;1731621;80;21083;-82
2022/10/24 08:56:44;;;;;;;8.05;3.25;;;;;;;17.99;89.60;98011.89;1746167;81;21089;-79
2022/10/24 08:59:11;;;;;;;8.55;3.10;;;;;;;18.18;87.92;98012.86;1751440;81;20913;-79
2022/10/24 09:01:56;;;;;;;9.00;3.35;;;;;;;18.33;87.24;98006.83;1736335;80;21312;-80
2022/10/24 09:04:25;;;;;;;8.83;3.72;;;;;;;18.45;86.35;98012.16;1711171;79;22246;-79
2022/10/24 09:06:51;;;;;;;;;;;;;;;18.51;86.09;98007.53;1757321;80;21356;-80
2022/10/24 09:09:28;;;;;;;6.35;3.05;;;;;;;18.58;84.60;98009.19;1730003;80;21287;-82
2022/10/24 09:12:02;;;;;;;4.70;2.65;;;;;;;18.63;84.66;98005.47;1787654;79;21041;-80
2022/10/24 09:14:33;;;;;;;5.40;2.37;;;;;;;18.72;84.43;98009.56;1769118;79;22173;-79
2022/10/24 09:17:23;;;;;;;4.75;2.05;;;;;;;18.85;82.92;98012.03;1762853;79;21112;-80
2022/10/24 09:19:54;;;;;;;4.50;2.85;;;;;;;18.99;83.84;98017.27;1736942;80;21458;-82
2022/10/24 09:22:21;;;;;;;6.47;2.87;;;;;;;19.10;81.59;98010.80;1750733;80;21932;-80
2022/10/24 09:24:57;;;;;;;8.60;3.37;;;;;;;19.22;81.83;97994.94;1712197;81;21596;-80
2022/10/24 09:27:26;;;;;;;6.65;3.37;;;;;;;19.33;80.75;97990.66;1737853;80;21090;-80
2022/10/24 09:29:52;;;;;;;6.08;3.42;;;;;;;19.49;79.91;97990.83;1736984;80;21134;-80
2022/10/24 09:32:21;;;;;;;4.33;2.80;;;;;;;19.53;80.92;97992.55;1735038;81;21585;-82
2022/10/24 09:34:47;;;;;;;5.35;2.30;;;;;;;19.61;81.59;97985.39;1743011;81;21110;-79
2022/10/24 09:37:36;;;;;;;6.92;2.87;;;;;;;19.65;79.61;97980.27;1754529;80;21397;-82
2022/10/24 09:40:27;;;;;;;6.55;2.35;;;;;;;19.71;77.77;97973.95;1740402;80;20956;-82
2022/10/24 09:43:16;;;;;;;5.50;2.77;;;;;;;19.85;77.50;97962.08;1763976;80;21093;-80
2022/10/24 09:45:50;;;;;;;;;;;;;;;19.82;75.67;97955.06;1749268;79;21039;-80
2022/10/24 09:48:26;;;;;;;11.38;3.25;;;;;;;19.82;76.55;97957.24;1740654;80;20548;-83
2022/10/24 09:50:52;;;;;;;7.40;2.52;;;;;;;19.86;76.57;97965.05;1740103;80;22247;-79
2022/10/24 09:53:36;;;;;;;10.98;2.92;;;;;;;19.89;77.32;97962.98;1737882;80;21402;-80
2022/10/24 09:56:11;;;;;;;8.68;2.85;;;;;;;19.93;76.25;97959.80;1743685;80;21992;-80
2022/10/24 09:58:37;;;;;;;9.75;4.40;;;;;;;19.89;76.93;97967.11;1739504;80;21558;-81
2022/10/24 10:01:06;;;;;;;8.20;3.45;;;;;;;19.86;78.85;97971.13;1742886;80;21047;-82
2022/10/24 10:03:33;;;;;;;;;;;;;;;19.85;76.45;97975.83;1745901;81;21090;-80
2022/10/24 10:06:17;;;;;;;7.67;3.60;;;;;;;19.70;79.02;97967.66;1744399;80;20266;-83
2022/10/24 10:08:52;;;;;;;9.03;5.30;;;;;;;19.63;77.42;97967.98;1718332;81;22038;-80
2022/10/24 10:11:29;;;;;;;17.60;5.15;;;;;;;19.48;77.89;97974.09;1741451;80;21468;-80
2022/10/24 10:13:56;;;;;;;15.28;4.37;;;;;;;19.33;79.31;97961.23;1744922;80;21080;-79
2022/10/24 10:16:32;;;;;;;9.80;3.90;;;;;;;19.25;79.03;97952.52;1745947;80;21042;-83
2022/10/24 10:19:07;;;;;;;17.90;6.05;;;;;;;19.16;80.12;97960.83;1735476;81;21004;-80
2022/10/24 10:22:00;;;;;;;24.65;5.70;;;;;;;19.13;80.76;97960.69;1731173;81;21120;-80
2022/10/24 10:24:38;;;;;;;21.77;6.78;;;;;;;19.07;81.14;97960.11;1737310;80;20973;-79
2022/10/24 10:27:34;;;;;;;13.55;5.17;;;;;;;19.00;82.09;97957.67;1734698;80;21027;-83
2022/10/24 10:30:17;;;;;;;8.95;3.52;;;;;;;18.91;82.47;97961.05;1737962;81;20983;-83
2022/10/24 10:33:05;;;;;;;9.55;4.05;;;;;;;18.84;82.71;97956.89;1737610;80;21039;-83
2022/10/24 10:35:37;;;;;;;;;;;;;;;18.82;83.00;97968.78;1695253;80;21605;-80
2022/10/24 10:38:28;;;;;;;12.70;6.40;;;;;;;18.75;84.03;97972.63;1750914;79;20189;-82
2022/10/24 10:41:12;;;;;;;11.75;5.00;;;;;;;18.64;84.23;97968.66;1747438;79;21032;-83
2022/10/24 10:44:13;;;;;;;18.37;6.97;;;;;;;18.60;84.60;97980.84;1739857;79;21011;-79
2022/10/24 10:47:05;;;;;;;17.90;5.97;;;;;;;18.63;85.01;97976.66;1747559;79;21031;-80
2022/10/24 10:49:40;;;;;;;16.85;6.65;;;;;;;18.76;85.34;97985.21;1740095;79;21031;-82
2022/10/24 10:52:32;;;;;;;11.85;5.00;;;;;;;18.93;85.57;97987.59;1747426;79;21461;-80
2022/10/24 10:55:21;;;;;;;13.08;6.05;;;;;;;19.10;85.80;97989.63;1745750;79;21028;-80
2022/10/24 10:58:01;;;;;;;9.00;6.00;;;;;;;19.28;85.16;97978.48;1741760;79;20992;-82
2022/10/24 11:01:06;;;;;;;14.45;4.45;;;;;;;19.47;84.82;97980.73;1751042;81;21014;-80
2022/10/24 11:03:36;;;;;;;7.35;3.77;;;;;;;19.68;84.34;97978.77;1753379;81;21066;-82
2022/10/24 11:06:42;;;;;;;10.38;3.42;;;;;;;19.85;79.08;97975.02;1758389;79;20989;-82
2022/10/24 11:09:20;;;;;;;6.40;3.60;;;;;;;19.87;79.07;97979.60;1742156;81;21158;-82
2022/10/24 11:11:50;;;;;;;5.17;2.73;;;;;;;19.98;78.25;97977.43;1762589;79;21024;-82
2022/10/24 11:14:35;;;;;;;4.30;2.50;;;;;;;20.08;77.46;97981.70;1765042;79;20984;-83
2022/10/24 11:17:20;;;;;;;7.45;2.98;;;;;;;20.21;76.62;97983.30;1731988;79;21177;-82
2022/10/24 11:19:57;;;;;;;3.52;2.45;;;;;;;20.25;76.59;97972.40;1744388;79;21551;-82
2022/10/24 11:22:28;;;;;;;5.25;3.02;;;;;;;20.29;74.10;97964.50;1734056;79;21059;-80
2022/10/24 11:25:23;;;;;;;5.30;2.98;;;;;;;20.26;74.57;97956.15;1740875;79;20953;-80
2022/10/24 11:28:00;;;;;;;9.05;2.87;;;;;;;20.25;75.45;97960.85;1746356;79;21085;-80
2022/10/24 11:30:48;;;;;;;13.55;2.83;;;;;;;20.26;76.13;97962.45;1740904;79;21210;-80
2022/10/24 11:33:26;;;;;;;;;;;;;;;20.23;76.32;97963.70;1763928;79;21544;-80
2022/10/24 11:36:13;;;;;;;7.00;1.95;;;;;;;20.17;77.52;97965.09;1744228;79;20228;-82
2022/10/24 11:38:47;;;;;;;9.50;2.92;;;;;;;20.14;76.51;97963.81;1741469;81;21436;-82